createdAt,value
2018-04-30T00:00:23.173Z,17.69
2018-04-30T00:01:22.934Z,17.69
2018-04-30T00:02:22.976Z,17.62
2018-04-30T00:03:22.947Z,17.69
2018-04-30T00:04:22.893Z,17.62
2018-04-30T00:05:23.026Z,17.69
2018-04-30T00:06:22.903Z,17.62
2018-04-30T00:07:22.910Z,17.62
2018-04-30T00:08:22.933Z,17.69
2018-04-30T00:09:22.901Z,17.62
2018-04-30T00:10:23.274Z,17.69
2018-04-30T00:11:22.912Z,17.62
2018-04-30T00:12:22.942Z,17.62
2018-04-30T00:13:22.928Z,17.62
2018-04-30T00:14:22.989Z,17.5
2018-04-30T00:15:22.982Z,17.56
2018-04-30T00:16:22.966Z,17.56
2018-04-30T00:17:22.996Z,17.5
2018-04-30T00:18:23.073Z,17.5
2018-04-30T00:19:22.998Z,17.44
2018-04-30T00:20:22.944Z,17.44
2018-04-30T00:21:22.918Z,17.44
2018-04-30T00:22:22.972Z,17.37
2018-04-30T00:23:23.046Z,17.37
2018-04-30T00:24:22.977Z,17.37
2018-04-30T00:25:23.010Z,17.37
2018-04-30T00:26:22.995Z,17.31
2018-04-30T00:27:23.014Z,17.31
2018-04-30T00:28:23.001Z,17.31
2018-04-30T00:29:22.956Z,17.31
2018-04-30T00:30:22.980Z,17.31
2018-04-30T00:31:22.938Z,17.31
2018-04-30T00:32:22.962Z,17.31
2018-04-30T00:33:23.073Z,17.25
2018-04-30T00:34:23.013Z,17.25
2018-04-30T00:35:22.988Z,17.25
2018-04-30T00:36:22.977Z,17.25
2018-04-30T00:37:22.960Z,17.25
2018-04-30T00:38:22.964Z,17.25
2018-04-30T00:39:23.056Z,17.25
2018-04-30T00:40:23.050Z,17.19
2018-04-30T00:41:22.929Z,17.19
2018-04-30T00:42:22.957Z,17.19
2018-04-30T00:43:22.956Z,17.12
2018-04-30T00:44:23.007Z,17.19
2018-04-30T00:45:22.951Z,17.19
2018-04-30T00:46:22.946Z,17.25
2018-04-30T00:47:22.933Z,17.19
2018-04-30T00:48:22.951Z,17.19
2018-04-30T00:49:23.018Z,17.19
2018-04-30T00:50:22.975Z,17.19
2018-04-30T00:51:22.952Z,17.19
2018-04-30T00:52:22.938Z,17.19
2018-04-30T00:53:23.036Z,17.12
2018-04-30T00:54:22.982Z,17.12
2018-04-30T00:55:22.944Z,17.06
2018-04-30T00:56:23.000Z,17
2018-04-30T00:57:22.958Z,17.06
2018-04-30T00:58:23.102Z,17
2018-04-30T00:59:22.902Z,16.94
2018-04-30T01:00:22.880Z,16.94
2018-04-30T01:01:22.940Z,16.94
2018-04-30T01:02:22.956Z,16.94
2018-04-30T01:03:23.347Z,16.94
2018-04-30T01:04:22.961Z,16.94
2018-04-30T01:05:22.900Z,16.94
2018-04-30T01:06:23.126Z,16.87
2018-04-30T01:07:23.073Z,16.87
2018-04-30T01:08:22.923Z,16.81
2018-04-30T01:09:22.941Z,16.75
2018-04-30T01:10:22.978Z,16.75
2018-04-30T01:11:22.979Z,16.69
2018-04-30T01:12:22.917Z,16.69
2018-04-30T01:13:22.935Z,16.69
2018-04-30T01:14:22.921Z,16.62
2018-04-30T01:15:22.954Z,16.69
2018-04-30T01:16:22.883Z,16.62
2018-04-30T01:17:22.881Z,16.62
2018-04-30T01:18:22.939Z,16.62
2018-04-30T01:19:22.967Z,16.62
2018-04-30T01:20:22.966Z,16.62
2018-04-30T01:21:22.961Z,16.56
2018-04-30T01:22:23.004Z,16.56
2018-04-30T01:23:22.999Z,16.62
2018-04-30T01:24:22.924Z,16.56
2018-04-30T01:25:22.937Z,16.62
2018-04-30T01:26:22.916Z,16.56
2018-04-30T01:27:22.883Z,16.56
2018-04-30T01:28:22.945Z,16.62
2018-04-30T01:29:22.919Z,16.56
2018-04-30T01:30:22.913Z,16.56
2018-04-30T01:31:22.994Z,16.56
2018-04-30T01:32:22.893Z,16.56
2018-04-30T01:33:22.999Z,16.56
2018-04-30T01:34:22.887Z,16.44
2018-04-30T01:35:22.883Z,16.44
2018-04-30T01:36:22.972Z,16.44
2018-04-30T01:37:22.935Z,16.44
2018-04-30T01:38:22.956Z,16.44
2018-04-30T01:39:23.046Z,16.44
2018-04-30T01:40:22.905Z,16.5
2018-04-30T01:41:23.314Z,16.37
2018-04-30T01:42:22.925Z,16.37
2018-04-30T01:43:22.911Z,16.37
2018-04-30T01:44:22.970Z,16.31
2018-04-30T01:45:22.962Z,16.31
2018-04-30T01:46:22.939Z,16.37
2018-04-30T01:47:23.064Z,16.37
2018-04-30T01:48:22.942Z,16.37
2018-04-30T01:49:22.925Z,16.31
2018-04-30T01:50:22.943Z,16.25
2018-04-30T01:51:22.936Z,16.25
2018-04-30T01:52:23.007Z,16.25
2018-04-30T01:53:23.037Z,16.25
2018-04-30T01:54:22.950Z,16.31
2018-04-30T01:55:22.984Z,16.31
2018-04-30T01:56:23.057Z,16.25
2018-04-30T01:57:22.944Z,16.25
2018-04-30T01:58:22.943Z,16.31
2018-04-30T01:59:22.915Z,16.19
2018-04-30T02:00:22.909Z,16.25
2018-04-30T02:01:22.919Z,16.19
2018-04-30T02:02:22.924Z,16.19
2018-04-30T02:03:23.015Z,16.12
2018-04-30T02:04:22.965Z,16.12
2018-04-30T02:05:23.115Z,16.19
2018-04-30T02:06:22.912Z,16.19
2018-04-30T02:07:22.901Z,16.19
2018-04-30T02:08:22.934Z,16.12
2018-04-30T02:09:22.952Z,16.19
2018-04-30T02:10:22.952Z,16.12
2018-04-30T02:11:23.026Z,16.12
2018-04-30T02:12:22.904Z,16.12
2018-04-30T02:13:22.942Z,16.06
2018-04-30T02:14:22.947Z,16.06
2018-04-30T02:15:22.939Z,16
2018-04-30T02:16:23.036Z,16.06
2018-04-30T02:17:22.928Z,16.06
2018-04-30T02:18:23.006Z,16.06
2018-04-30T02:19:22.966Z,16.12
2018-04-30T02:20:22.881Z,16.12
2018-04-30T02:21:22.923Z,16.12
2018-04-30T02:22:22.917Z,16.06
2018-04-30T02:23:22.940Z,16.06
2018-04-30T02:24:22.944Z,16.06
2018-04-30T02:25:22.955Z,16.06
2018-04-30T02:26:22.894Z,16.06
2018-04-30T02:27:22.955Z,16
2018-04-30T02:28:22.959Z,16
2018-04-30T02:29:22.982Z,16
2018-04-30T02:30:22.963Z,16
2018-04-30T02:31:22.959Z,16.06
2018-04-30T02:32:22.935Z,16.06
2018-04-30T02:33:22.912Z,16
2018-04-30T02:34:23.088Z,16.06
2018-04-30T02:35:22.955Z,16
2018-04-30T02:36:22.961Z,16.06
2018-04-30T02:37:22.956Z,16.06
2018-04-30T02:38:22.981Z,16
2018-04-30T02:39:22.942Z,16
2018-04-30T02:40:23.017Z,16
2018-04-30T02:41:22.932Z,16
2018-04-30T02:42:22.936Z,15.94
2018-04-30T02:43:22.962Z,15.94
2018-04-30T02:44:23.062Z,16
2018-04-30T02:45:22.998Z,15.94
2018-04-30T02:46:22.991Z,16
2018-04-30T02:47:22.925Z,15.94
2018-04-30T02:48:22.972Z,15.88
2018-04-30T02:49:22.985Z,15.88
2018-04-30T02:50:23.126Z,15.88
2018-04-30T02:51:22.982Z,15.88
2018-04-30T02:52:22.984Z,15.94
2018-04-30T02:53:22.966Z,15.81
2018-04-30T02:54:23.046Z,15.81
2018-04-30T02:55:23.011Z,15.69
2018-04-30T02:56:22.940Z,15.75
2018-04-30T02:57:22.947Z,15.69
2018-04-30T02:58:22.982Z,15.56
2018-04-30T02:59:22.985Z,15.56
2018-04-30T03:00:22.996Z,15.56
2018-04-30T03:01:23.055Z,15.56
2018-04-30T03:02:22.986Z,15.56
2018-04-30T03:03:22.967Z,15.5
2018-04-30T03:04:22.979Z,15.5
2018-04-30T03:05:23.015Z,15.5
2018-04-30T03:06:23.015Z,15.56
2018-04-30T03:07:23.093Z,15.56
2018-04-30T03:08:22.990Z,15.44
2018-04-30T03:09:22.958Z,15.5
2018-04-30T03:10:23.022Z,15.44
2018-04-30T03:11:22.976Z,15.5
2018-04-30T03:12:22.996Z,15.5
2018-04-30T03:13:22.998Z,15.5
2018-04-30T03:14:22.948Z,15.5
2018-04-30T03:15:23.018Z,15.5
2018-04-30T03:16:22.985Z,15.44
2018-04-30T03:17:22.987Z,15.44
2018-04-30T03:18:23.013Z,15.44
2018-04-30T03:19:23.083Z,15.44
2018-04-30T03:20:23.268Z,15.44
2018-04-30T03:21:23.040Z,15.38
2018-04-30T03:22:22.965Z,15.44
2018-04-30T03:23:22.982Z,15.44
2018-04-30T03:24:22.999Z,15.5
2018-04-30T03:25:22.958Z,15.5
2018-04-30T03:26:23.004Z,15.5
2018-04-30T03:27:23.489Z,15.44
2018-04-30T03:28:22.965Z,15.44
2018-04-30T03:29:23.020Z,15.44
2018-04-30T03:30:22.993Z,15.31
2018-04-30T03:31:22.962Z,15.38
2018-04-30T03:32:22.979Z,15.38
2018-04-30T03:33:23.011Z,15.31
2018-04-30T03:34:22.979Z,15.31
2018-04-30T03:35:23.016Z,15.25
2018-04-30T03:36:22.963Z,15.19
2018-04-30T03:37:22.991Z,15.19
2018-04-30T03:38:22.926Z,15.19
2018-04-30T03:39:23.029Z,15.25
2018-04-30T03:40:22.944Z,15.25
2018-04-30T03:41:22.954Z,15.25
2018-04-30T03:42:22.950Z,15.25
2018-04-30T03:43:22.944Z,15.19
2018-04-30T03:44:22.943Z,15.13
2018-04-30T03:45:22.964Z,15.19
2018-04-30T03:46:22.953Z,15.06
2018-04-30T03:47:22.939Z,15.06
2018-04-30T03:48:23.243Z,15.06
2018-04-30T03:49:22.947Z,15.06
2018-04-30T03:50:22.966Z,15
2018-04-30T03:51:22.939Z,14.87
2018-04-30T03:52:23.002Z,14.87
2018-04-30T03:53:23.177Z,14.87
2018-04-30T03:54:22.940Z,14.94
2018-04-30T03:55:23.067Z,15
2018-04-30T03:56:22.936Z,14.94
2018-04-30T03:57:22.933Z,14.94
2018-04-30T03:58:23.022Z,15
2018-04-30T03:59:23.079Z,15
2018-04-30T04:00:23.029Z,15
2018-04-30T04:01:23.014Z,15
2018-04-30T04:02:23.049Z,15
2018-04-30T04:03:22.993Z,15
2018-04-30T04:04:23.155Z,15
2018-04-30T04:05:22.963Z,15
2018-04-30T04:06:23.008Z,14.94
2018-04-30T04:07:22.952Z,14.94
2018-04-30T04:08:22.987Z,14.81
2018-04-30T04:09:22.950Z,14.81
2018-04-30T04:10:22.952Z,14.87
2018-04-30T04:11:22.985Z,14.81
2018-04-30T04:12:22.940Z,14.75
2018-04-30T04:13:23.076Z,14.75
2018-04-30T04:14:22.977Z,14.75
2018-04-30T04:15:22.989Z,14.81
2018-04-30T04:16:22.967Z,14.81
2018-04-30T04:17:23.023Z,14.81
2018-04-30T04:18:22.980Z,14.81
2018-04-30T04:19:23.087Z,14.87
2018-04-30T04:20:23.067Z,14.87
2018-04-30T04:21:22.961Z,14.87
2018-04-30T04:22:22.997Z,14.81
2018-04-30T04:23:22.979Z,14.81
2018-04-30T04:24:23.021Z,14.81
2018-04-30T04:25:23.020Z,14.81
2018-04-30T04:26:22.964Z,14.81
2018-04-30T04:27:23.030Z,14.81
2018-04-30T04:28:23.108Z,14.81
2018-04-30T04:29:22.982Z,14.81
2018-04-30T04:30:23.072Z,14.75
2018-04-30T04:31:23.020Z,14.75
2018-04-30T04:32:23.083Z,14.75
2018-04-30T04:33:22.999Z,14.75
2018-04-30T04:34:22.982Z,14.75
2018-04-30T04:35:22.949Z,14.75
2018-04-30T04:36:23.107Z,14.75
2018-04-30T04:37:22.937Z,14.75
2018-04-30T04:38:23.020Z,14.75
2018-04-30T04:39:23.204Z,14.75
2018-04-30T04:40:23.007Z,14.75
2018-04-30T04:41:23.040Z,14.75
2018-04-30T04:42:22.954Z,14.75
2018-04-30T04:43:22.978Z,14.75
2018-04-30T04:44:23.040Z,14.75
2018-04-30T04:45:22.998Z,14.75
2018-04-30T04:46:22.995Z,14.75
2018-04-30T04:47:23.278Z,14.75
2018-04-30T04:48:23.031Z,14.69
2018-04-30T04:49:22.976Z,14.69
2018-04-30T04:50:23.039Z,14.69
2018-04-30T04:51:23.002Z,14.69
2018-04-30T04:52:23.058Z,14.69
2018-04-30T04:53:23.013Z,14.69
2018-04-30T04:54:22.982Z,14.63
2018-04-30T04:55:22.998Z,14.63
2018-04-30T04:56:23.013Z,14.63
2018-04-30T04:57:22.999Z,14.63
2018-04-30T04:58:22.989Z,14.56
2018-04-30T04:59:22.976Z,14.63
2018-04-30T05:00:23.004Z,14.63
2018-04-30T05:01:22.976Z,14.56
2018-04-30T05:02:23.712Z,14.63
2018-04-30T05:03:22.979Z,14.56
2018-04-30T05:04:23.160Z,14.56
2018-04-30T05:05:23.010Z,14.5
2018-04-30T05:06:23.061Z,14.5
2018-04-30T05:07:23.029Z,14.5
2018-04-30T05:08:23.013Z,14.44
2018-04-30T05:09:23.022Z,14.5
2018-04-30T05:10:23.035Z,14.44
2018-04-30T05:11:22.972Z,14.44
2018-04-30T05:12:23.014Z,14.44
2018-04-30T05:13:22.964Z,14.44
2018-04-30T05:14:23.003Z,14.44
2018-04-30T05:15:23.060Z,14.38
2018-04-30T05:16:23.045Z,14.44
2018-04-30T05:17:23.029Z,14.44
2018-04-30T05:18:23.156Z,14.38
2018-04-30T05:19:23.025Z,14.38
2018-04-30T05:20:23.015Z,14.38
2018-04-30T05:21:23.023Z,14.44
2018-04-30T05:22:23.048Z,14.44
2018-04-30T05:23:23.368Z,14.38
2018-04-30T05:24:23.093Z,14.44
2018-04-30T05:25:23.100Z,14.38
2018-04-30T05:26:23.039Z,14.38
2018-04-30T05:27:23.050Z,14.38
2018-04-30T05:28:23.059Z,14.38
2018-04-30T05:29:22.984Z,14.38
2018-04-30T05:30:23.042Z,14.38
2018-04-30T05:31:23.081Z,14.38
2018-04-30T05:32:23.036Z,14.38
2018-04-30T05:33:23.016Z,14.31
2018-04-30T05:34:23.040Z,14.31
2018-04-30T05:35:23.055Z,14.25
2018-04-30T05:36:23.026Z,14.25
2018-04-30T05:37:23.042Z,14.25
2018-04-30T05:38:23.025Z,14.19
2018-04-30T05:39:23.053Z,14.25
2018-04-30T05:40:23.021Z,14.25
2018-04-30T05:41:23.048Z,14.25
2018-04-30T05:42:23.069Z,14.25
2018-04-30T05:43:23.020Z,14.25
2018-04-30T05:44:23.409Z,14.25
2018-04-30T05:45:23.078Z,14.19
2018-04-30T05:46:23.013Z,14.19
2018-04-30T05:47:22.985Z,14.13
2018-04-30T05:48:23.085Z,14
2018-04-30T05:49:23.101Z,14
2018-04-30T05:50:23.003Z,14
2018-04-30T05:51:23.031Z,14.06
2018-04-30T05:52:22.999Z,14
2018-04-30T05:53:23.044Z,13.94
2018-04-30T05:54:23.005Z,14
2018-04-30T05:55:23.052Z,14
2018-04-30T05:56:22.999Z,14.06
2018-04-30T05:57:23.045Z,14
2018-04-30T05:58:23.031Z,14.06
2018-04-30T05:59:23.016Z,14.13
2018-04-30T06:00:23.097Z,14.13
2018-04-30T06:01:23.069Z,14.13
2018-04-30T06:02:23.139Z,14.13
2018-04-30T06:03:23.045Z,14.13
2018-04-30T06:04:23.446Z,14.13
2018-04-30T06:05:23.145Z,14.19
2018-04-30T06:06:23.070Z,14.13
2018-04-30T06:07:23.026Z,14.13
2018-04-30T06:08:23.028Z,14.13
2018-04-30T06:09:23.052Z,14.19
2018-04-30T06:10:23.059Z,14.13
2018-04-30T06:11:23.012Z,14.13
2018-04-30T06:12:23.045Z,14.13
2018-04-30T06:13:23.055Z,14.13
2018-04-30T06:14:23.049Z,14.13
2018-04-30T06:15:23.053Z,14.13
2018-04-30T06:16:22.998Z,14.13
2018-04-30T06:17:23.353Z,14.13
2018-04-30T06:18:23.011Z,14.13
2018-04-30T06:19:23.018Z,14.13
2018-04-30T06:20:23.026Z,14.13
2018-04-30T06:21:23.053Z,14.19
2018-04-30T06:22:23.087Z,14.06
2018-04-30T06:23:23.026Z,14.13
2018-04-30T06:24:23.056Z,14.06
2018-04-30T06:25:23.004Z,14.06
2018-04-30T06:26:23.056Z,14.13
2018-04-30T06:27:23.045Z,14.13
2018-04-30T06:28:23.051Z,14.19
2018-04-30T06:29:23.018Z,14.13
2018-04-30T06:30:23.057Z,14.13
2018-04-30T06:31:23.068Z,14.13
2018-04-30T06:32:24.473Z,14.06
2018-04-30T06:33:23.044Z,14.13
2018-04-30T06:34:23.010Z,14.06
2018-04-30T06:35:23.069Z,14.06
2018-04-30T06:36:23.011Z,14.06
2018-04-30T06:37:23.106Z,14
2018-04-30T06:38:23.370Z,14
2018-04-30T06:39:23.087Z,14.06
2018-04-30T06:40:23.023Z,14
2018-04-30T06:41:23.034Z,14.06
2018-04-30T06:42:23.073Z,14.06
2018-04-30T06:43:23.099Z,14.06
2018-04-30T06:44:23.120Z,14.06
2018-04-30T06:45:23.061Z,14.06
2018-04-30T06:46:23.082Z,14.13
2018-04-30T06:47:23.039Z,14.13
2018-04-30T06:48:23.046Z,14.19
2018-04-30T06:49:23.190Z,14.19
2018-04-30T06:50:23.136Z,14.19
2018-04-30T06:51:23.037Z,14.19
2018-04-30T06:52:23.108Z,14.19
2018-04-30T06:53:23.197Z,14.06
2018-04-30T06:54:23.088Z,14.06
2018-04-30T06:55:23.115Z,14.06
2018-04-30T06:56:23.020Z,14
2018-04-30T06:57:23.022Z,14.06
2018-04-30T06:58:23.048Z,14.06
2018-04-30T06:59:23.048Z,14.13
2018-04-30T07:00:23.695Z,14.25
2018-04-30T07:01:23.043Z,14.31
2018-04-30T07:02:23.181Z,14.31
2018-04-30T07:03:23.052Z,14.38
2018-04-30T07:04:23.033Z,14.44
2018-04-30T07:05:23.181Z,14.5
2018-04-30T07:06:23.028Z,14.5
2018-04-30T07:07:23.074Z,14.5
2018-04-30T07:08:23.017Z,14.5
2018-04-30T07:09:23.769Z,14.56
2018-04-30T07:10:23.130Z,14.5
2018-04-30T07:11:23.089Z,14.5
2018-04-30T07:12:23.043Z,14.5
2018-04-30T07:13:23.057Z,14.5
2018-04-30T07:14:23.078Z,14.5
2018-04-30T07:15:23.058Z,14.5
2018-04-30T07:16:23.049Z,14.5
2018-04-30T07:17:23.347Z,14.5
2018-04-30T07:18:23.074Z,14.56
2018-04-30T07:19:23.088Z,14.56
2018-04-30T07:20:23.037Z,14.63
2018-04-30T07:21:23.049Z,14.63
2018-04-30T07:22:23.056Z,14.63
2018-04-30T07:23:23.083Z,14.63
2018-04-30T07:24:23.038Z,14.69
2018-04-30T07:25:23.050Z,14.75
2018-04-30T07:26:23.129Z,14.75
2018-04-30T07:27:23.063Z,14.81
2018-04-30T07:28:23.095Z,14.81
2018-04-30T07:29:23.077Z,14.81
2018-04-30T07:30:23.057Z,14.75
2018-04-30T07:31:23.084Z,14.69
2018-04-30T07:32:23.043Z,14.63
2018-04-30T07:33:23.070Z,14.69
2018-04-30T07:34:23.055Z,14.69
2018-04-30T07:35:23.105Z,14.75
2018-04-30T07:36:23.183Z,14.75
2018-04-30T07:37:23.078Z,14.81
2018-04-30T07:38:23.115Z,14.94
2018-04-30T07:39:23.069Z,15
2018-04-30T07:40:23.057Z,15.06
2018-04-30T07:41:23.046Z,15.06
2018-04-30T07:42:23.090Z,15.13
2018-04-30T07:43:23.136Z,15.06
2018-04-30T07:44:23.073Z,15.13
2018-04-30T07:45:23.086Z,15.06
2018-04-30T07:46:23.105Z,15.13
2018-04-30T07:47:23.159Z,15.13
2018-04-30T07:48:23.163Z,15.19
2018-04-30T07:49:23.272Z,15.25
2018-04-30T07:50:23.340Z,15.31
2018-04-30T07:51:23.181Z,15.38
2018-04-30T07:52:23.076Z,15.38
2018-04-30T07:53:23.287Z,15.31
2018-04-30T07:54:23.079Z,15.31
2018-04-30T07:55:23.142Z,15.38
2018-04-30T07:56:23.177Z,15.31
2018-04-30T07:57:24.046Z,15.25
2018-04-30T07:58:23.041Z,15.25
2018-04-30T07:59:23.127Z,15.19
2018-04-30T08:00:23.102Z,15.25
2018-04-30T08:01:23.152Z,15.25
2018-04-30T08:02:23.104Z,15.25
2018-04-30T08:03:23.061Z,15.25
2018-04-30T08:04:23.070Z,15.31
2018-04-30T08:05:23.093Z,15.31
2018-04-30T08:06:23.084Z,15.38
2018-04-30T08:07:23.097Z,15.38
2018-04-30T08:08:23.099Z,15.31
2018-04-30T08:09:23.049Z,15.25
2018-04-30T08:10:23.069Z,15.25
2018-04-30T08:11:23.151Z,15.25
2018-04-30T08:12:23.113Z,15.25
2018-04-30T08:13:23.053Z,15.19
2018-04-30T08:14:23.093Z,15.19
2018-04-30T08:15:23.073Z,15.19
2018-04-30T08:16:23.159Z,15.25
2018-04-30T08:17:23.108Z,15.25
2018-04-30T08:18:23.103Z,15.38
2018-04-30T08:19:23.093Z,15.44
2018-04-30T08:20:23.094Z,15.56
2018-04-30T08:21:23.150Z,15.5
2018-04-30T08:22:23.079Z,15.56
2018-04-30T08:23:23.129Z,15.56
2018-04-30T08:24:23.139Z,15.56
2018-04-30T08:25:23.139Z,15.56
2018-04-30T08:26:23.280Z,15.56
2018-04-30T08:27:23.091Z,15.56
2018-04-30T08:28:23.053Z,15.69
2018-04-30T08:29:23.059Z,15.81
2018-04-30T08:30:23.084Z,15.81
2018-04-30T08:31:23.189Z,15.88
2018-04-30T08:32:23.083Z,15.88
2018-04-30T08:33:23.082Z,16
2018-04-30T08:34:23.120Z,16
2018-04-30T08:35:23.138Z,16.06
2018-04-30T08:36:23.161Z,16.06
2018-04-30T08:37:23.098Z,16.06
2018-04-30T08:38:23.092Z,16
2018-04-30T08:39:23.140Z,16
2018-04-30T08:40:23.118Z,16.06
2018-04-30T08:41:23.088Z,16.12
2018-04-30T08:42:23.083Z,16.19
2018-04-30T08:43:23.104Z,16.31
2018-04-30T08:44:23.604Z,16.37
2018-04-30T08:45:23.289Z,16.44
2018-04-30T08:46:23.695Z,16.5
2018-04-30T08:47:23.783Z,16.62
2018-04-30T08:48:23.503Z,16.69
2018-04-30T08:49:23.857Z,16.75
2018-04-30T08:50:24.823Z,16.75
2018-04-30T08:51:23.881Z,16.75
2018-04-30T08:52:23.085Z,16.75
2018-04-30T08:53:23.163Z,16.69
2018-04-30T08:54:23.078Z,16.62
2018-04-30T08:55:23.080Z,16.56
2018-04-30T08:56:23.826Z,16.56
2018-04-30T08:57:23.115Z,16.5
2018-04-30T08:58:23.113Z,16.37
2018-04-30T08:59:23.113Z,16.31
2018-04-30T09:00:24.117Z,16.31
2018-04-30T09:01:23.442Z,16.31
2018-04-30T09:02:23.163Z,16.37
2018-04-30T09:03:23.166Z,16.44
2018-04-30T09:04:23.131Z,16.5
2018-04-30T09:05:23.115Z,16.56
2018-04-30T09:06:23.124Z,16.56
2018-04-30T09:07:23.089Z,16.56
2018-04-30T09:08:23.091Z,16.56
2018-04-30T09:09:23.116Z,16.69
2018-04-30T09:10:23.100Z,16.69
2018-04-30T09:11:23.285Z,16.69
2018-04-30T09:12:23.115Z,16.69
2018-04-30T09:13:23.090Z,16.62
2018-04-30T09:14:23.095Z,16.5
2018-04-30T09:15:23.238Z,16.56
2018-04-30T09:16:26.065Z,16.56
2018-04-30T09:17:23.097Z,16.56
2018-04-30T09:18:24.508Z,16.44
2018-04-30T09:19:23.124Z,16.44
2018-04-30T09:20:23.247Z,16.5
2018-04-30T09:21:23.116Z,16.5
2018-04-30T09:22:23.144Z,16.56
2018-04-30T09:23:23.946Z,16.56
2018-04-30T09:24:23.128Z,16.56
2018-04-30T09:25:23.153Z,16.5
2018-04-30T09:26:23.182Z,16.5
2018-04-30T09:27:23.134Z,16.56
2018-04-30T09:28:23.150Z,16.56
2018-04-30T09:29:23.141Z,16.69
2018-04-30T09:30:23.207Z,16.75
2018-04-30T09:31:23.153Z,16.87
2018-04-30T09:32:23.181Z,16.94
2018-04-30T09:33:23.140Z,16.94
2018-04-30T09:34:23.136Z,16.94
2018-04-30T09:35:23.305Z,17.06
2018-04-30T09:36:23.215Z,17.12
2018-04-30T09:37:23.158Z,17.19
2018-04-30T09:38:23.159Z,17.31
2018-04-30T09:39:23.125Z,17.31
2018-04-30T09:40:23.128Z,17.31
2018-04-30T09:41:23.165Z,17.25
2018-04-30T09:42:23.132Z,17.31
2018-04-30T09:43:23.202Z,17.37
2018-04-30T09:44:23.110Z,17.44
2018-04-30T09:45:23.140Z,17.37
2018-04-30T09:46:23.157Z,17.31
2018-04-30T09:47:23.141Z,17.31
2018-04-30T09:48:23.208Z,17.37
2018-04-30T09:49:23.105Z,17.31
2018-04-30T09:50:23.114Z,17.44
2018-04-30T09:51:23.107Z,17.44
2018-04-30T09:52:23.155Z,17.56
2018-04-30T09:53:23.127Z,17.56
2018-04-30T09:54:23.160Z,17.62
2018-04-30T09:55:23.194Z,17.62
2018-04-30T09:56:23.112Z,17.62
2018-04-30T09:57:23.153Z,17.62
2018-04-30T09:58:23.127Z,17.56
2018-04-30T09:59:23.248Z,17.56
2018-04-30T10:00:23.154Z,17.69
2018-04-30T10:01:23.116Z,17.62
2018-04-30T10:02:23.125Z,17.69
2018-04-30T10:03:23.127Z,17.75
2018-04-30T10:04:23.118Z,17.81
2018-04-30T10:05:23.171Z,17.87
2018-04-30T10:06:23.300Z,17.94
2018-04-30T10:07:23.844Z,17.94
2018-04-30T10:08:23.118Z,17.94
2018-04-30T10:09:23.145Z,17.94
2018-04-30T10:10:23.133Z,17.87
2018-04-30T10:11:23.149Z,17.69
2018-04-30T10:12:23.237Z,17.62
2018-04-30T10:13:23.123Z,17.56
2018-04-30T10:14:23.233Z,17.56
2018-04-30T10:15:23.148Z,17.44
2018-04-30T10:16:23.157Z,17.44
2018-04-30T10:17:23.306Z,17.44
2018-04-30T10:18:23.179Z,17.44
2018-04-30T10:19:23.193Z,17.44
2018-04-30T10:20:23.124Z,17.5
2018-04-30T10:21:23.119Z,17.62
2018-04-30T10:22:23.157Z,17.69
2018-04-30T10:23:23.759Z,17.69
2018-04-30T10:24:23.134Z,17.69
2018-04-30T10:25:23.289Z,17.62
2018-04-30T10:26:23.179Z,17.69
2018-04-30T10:27:23.150Z,17.62
2018-04-30T10:28:23.141Z,17.69
2018-04-30T10:29:23.163Z,17.75
2018-04-30T10:30:23.152Z,17.81
2018-04-30T10:31:23.207Z,17.81
2018-04-30T10:32:23.139Z,17.81
2018-04-30T10:33:23.189Z,17.87
2018-04-30T10:34:23.202Z,17.94
2018-04-30T10:35:23.184Z,18
2018-04-30T10:36:23.199Z,18
2018-04-30T10:37:23.213Z,18.12
2018-04-30T10:38:23.203Z,18.19
2018-04-30T10:39:23.186Z,18.25
2018-04-30T10:40:23.243Z,18.19
2018-04-30T10:41:23.169Z,18.19
2018-04-30T10:42:23.234Z,18.25
2018-04-30T10:43:23.294Z,18.25
2018-04-30T10:44:23.676Z,18.31
2018-04-30T10:45:23.223Z,18.37
2018-04-30T10:46:23.222Z,18.37
2018-04-30T10:47:23.192Z,18.44
2018-04-30T10:48:23.178Z,18.5
2018-04-30T10:49:23.184Z,18.56
2018-04-30T10:50:23.193Z,18.62
2018-04-30T10:51:23.269Z,18.69
2018-04-30T10:52:23.213Z,18.69
2018-04-30T10:53:23.789Z,18.75
2018-04-30T10:54:23.820Z,18.75
2018-04-30T10:55:23.162Z,18.81
2018-04-30T10:56:24.423Z,18.87
2018-04-30T10:57:23.188Z,18.87
2018-04-30T10:58:23.196Z,18.87
2018-04-30T10:59:23.164Z,18.87
2018-04-30T11:00:23.176Z,18.81
2018-04-30T11:01:23.156Z,18.69
2018-04-30T11:02:23.190Z,18.56
2018-04-30T11:03:23.318Z,18.5
2018-04-30T11:04:23.157Z,18.37
2018-04-30T11:05:23.296Z,18.37
2018-04-30T11:06:23.174Z,18.31
2018-04-30T11:07:23.190Z,18.25
2018-04-30T11:08:23.239Z,18.19
2018-04-30T11:09:23.179Z,18.25
2018-04-30T11:10:23.173Z,18.31
2018-04-30T11:11:23.160Z,18.37
2018-04-30T11:12:23.675Z,18.31
2018-04-30T11:13:23.172Z,18.31
2018-04-30T11:14:23.201Z,18.31
2018-04-30T11:15:23.186Z,18.19
2018-04-30T11:16:23.185Z,18.12
2018-04-30T11:17:23.191Z,18.12
2018-04-30T11:18:23.344Z,18.06
2018-04-30T11:19:23.956Z,18.06
2018-04-30T11:20:23.276Z,18
2018-04-30T11:21:24.145Z,17.94
2018-04-30T11:22:23.199Z,17.81
2018-04-30T11:23:23.209Z,17.75
2018-04-30T11:24:23.308Z,17.69
2018-04-30T11:25:23.324Z,17.62
2018-04-30T11:26:23.182Z,17.69
2018-04-30T11:27:23.160Z,17.69
2018-04-30T11:28:25.428Z,17.69
2018-04-30T11:29:23.203Z,17.75
2018-04-30T11:30:23.335Z,17.81
2018-04-30T11:31:23.606Z,17.94
2018-04-30T11:32:23.218Z,18.12
2018-04-30T11:33:23.227Z,18.19
2018-04-30T11:34:23.258Z,18.31
2018-04-30T11:35:23.460Z,18.44
2018-04-30T11:36:25.223Z,18.44
2018-04-30T11:37:23.269Z,18.5
2018-04-30T11:38:23.245Z,18.5
2018-04-30T11:39:23.323Z,18.5
2018-04-30T11:40:23.274Z,18.62
2018-04-30T11:41:23.309Z,18.62
2018-04-30T11:42:23.271Z,18.75
2018-04-30T11:43:23.223Z,18.69
2018-04-30T11:44:23.221Z,18.62
2018-04-30T11:45:24.380Z,18.69
2018-04-30T11:46:23.708Z,18.62
2018-04-30T11:47:23.257Z,18.75
2018-04-30T11:48:23.275Z,18.81
2018-04-30T11:49:23.271Z,18.81
2018-04-30T11:50:23.250Z,18.62
2018-04-30T11:51:23.278Z,18.62
2018-04-30T11:52:23.236Z,18.69
2018-04-30T11:53:23.299Z,18.69
2018-04-30T11:54:24.105Z,18.75
2018-04-30T11:55:23.291Z,18.81
2018-04-30T11:56:23.272Z,18.75
2018-04-30T11:57:23.337Z,18.81
2018-04-30T11:58:28.872Z,18.87
2018-04-30T11:59:23.239Z,18.94
2018-04-30T12:00:23.520Z,18.87
2018-04-30T12:01:24.276Z,18.87
2018-04-30T12:02:25.002Z,18.94
2018-04-30T12:03:23.299Z,19
2018-04-30T12:04:23.235Z,19.06
2018-04-30T12:05:23.287Z,19
2018-04-30T12:06:23.340Z,18.94
2018-04-30T12:07:23.252Z,18.94
2018-04-30T12:08:23.266Z,19
2018-04-30T12:09:23.263Z,18.87
2018-04-30T12:10:23.264Z,18.81
2018-04-30T12:11:23.283Z,18.75
2018-04-30T12:12:23.255Z,18.75
2018-04-30T12:13:23.317Z,18.75
2018-04-30T12:14:23.724Z,18.69
2018-04-30T12:15:23.273Z,18.69
2018-04-30T12:16:23.364Z,18.69
2018-04-30T12:17:23.329Z,18.69
2018-04-30T12:18:23.337Z,18.56
2018-04-30T12:19:23.292Z,18.56
2018-04-30T12:20:23.290Z,18.56
2018-04-30T12:21:23.302Z,18.5
2018-04-30T12:22:24.966Z,18.56
2018-04-30T12:23:23.284Z,18.56
2018-04-30T12:24:23.329Z,18.56
2018-04-30T12:25:23.288Z,18.62
2018-04-30T12:26:23.291Z,18.5
2018-04-30T12:27:23.293Z,18.62
2018-04-30T12:28:23.288Z,18.69
2018-04-30T12:29:23.321Z,18.75
2018-04-30T12:30:23.300Z,18.81
2018-04-30T12:31:26.519Z,18.75
2018-04-30T12:32:23.510Z,18.75
2018-04-30T12:33:23.540Z,18.75
2018-04-30T12:34:23.316Z,18.75
2018-04-30T12:35:23.362Z,18.75
2018-04-30T12:36:23.309Z,18.69
2018-04-30T12:37:23.283Z,18.69
2018-04-30T12:38:23.288Z,18.75
2018-04-30T12:39:23.808Z,18.87
2018-04-30T12:40:27.028Z,18.94
2018-04-30T12:41:23.330Z,19
2018-04-30T12:42:23.273Z,19.12
2018-04-30T12:43:23.357Z,19.06
2018-04-30T12:44:23.320Z,19.12
2018-04-30T12:45:23.496Z,19.19
2018-04-30T12:46:23.365Z,19.25
2018-04-30T12:47:23.373Z,19.25
2018-04-30T12:48:23.484Z,19.25
2018-04-30T12:49:26.853Z,19.31
2018-04-30T12:50:23.319Z,19.31
2018-04-30T12:51:23.557Z,19.44
2018-04-30T12:52:23.470Z,19.5
2018-04-30T12:53:23.304Z,19.44
2018-04-30T12:54:23.521Z,19.44
2018-04-30T12:55:24.552Z,19.31
2018-04-30T12:56:23.300Z,19.31
2018-04-30T12:57:23.406Z,19.31
2018-04-30T12:58:23.380Z,19.37